Terminal Aerodrome Forecast
Issued by NWS Tulsa, OK

Home | Current Version | Previous Version | Text Only | Print | Product List | Glossary On
Versions: 1 2 3 4 5 6 7 8 9 10 11 12 13
000
FTUS44 KTSA 172300
TAFTUL
TAF
KTUL 172320Z 1800/1824 01007KT P6SM BKN060 OVC100
      TEMPO 1800/1802 -RA
     FM180300 06006KT P6SM SCT100=

USA.gov is the U.S. government's official web portal to all federal, state and local government web resources and services.